createdAt,value
2019-05-07T00:00:58.454Z,95615.66
2019-05-07T00:03:28.141Z,95618.91
2019-05-07T00:05:57.805Z,95615.34
2019-05-07T00:08:27.427Z,95616.25
2019-05-07T00:10:57.054Z,95614.03
2019-05-07T00:13:26.715Z,95612.68
2019-05-07T00:15:56.334Z,95610.67
2019-05-07T00:18:26.052Z,95609.20
2019-05-07T00:20:55.735Z,95614.23
2019-05-07T00:23:25.389Z,95605.95
2019-05-07T00:25:55.080Z,95611.33
2019-05-07T00:28:24.805Z,95613.48
2019-05-07T00:30:54.493Z,95608.73
2019-05-07T00:33:24.793Z,95606.80
2019-05-07T00:35:56.074Z,95604.99
2019-05-07T00:38:27.373Z,95609.53
2019-05-07T00:41:12.315Z,95609.76
2019-05-07T00:43:43.643Z,95605.23
2019-05-07T00:46:16.280Z,95604.60
2019-05-07T00:48:45.900Z,95607.12
2019-05-07T00:51:33.394Z,95606.40
2019-05-07T00:54:03.467Z,95604.47
2019-05-07T00:56:33.403Z,95602.11
2019-05-07T00:59:03.190Z,95602.50
2019-05-07T01:01:33.531Z,95595.05
2019-05-07T01:04:03.164Z,95595.78
2019-05-07T01:06:33.201Z,95598.78
2019-05-07T01:09:03.867Z,95598.78
2019-05-07T01:11:33.758Z,95595.74
2019-05-07T01:14:03.413Z,95595.74
2019-05-07T01:16:33.219Z,95600.19
2019-05-07T01:19:03.041Z,95596.50
2019-05-07T01:21:32.711Z,95594.95
2019-05-07T01:24:03.285Z,95591.38
2019-05-07T01:26:33.280Z,95591.19
2019-05-07T01:29:03.487Z,95591.19
2019-05-07T01:31:35.691Z,95592.43
2019-05-07T01:34:23.239Z,95593.38
2019-05-07T01:36:53.304Z,95593.38
2019-05-07T01:39:23.303Z,95598.17
2019-05-07T01:41:52.972Z,95586.08
2019-05-07T01:44:22.889Z,95586.08
2019-05-07T01:46:53.028Z,95587.10
2019-05-07T01:49:24.037Z,95587.10
2019-05-07T01:51:54.608Z,95588.34
2019-05-07T01:54:24.525Z,95593.52
2019-05-07T01:56:54.472Z,95589.44
2019-05-07T01:59:24.388Z,95587.14
2019-05-07T02:01:55.973Z,95587.91
2019-05-07T02:04:45.740Z,95588.16
2019-05-07T02:07:23.330Z,95589.56
2019-05-07T02:10:11.924Z,95578.40
2019-05-07T02:12:42.650Z,95588.11
2019-05-07T02:15:15.179Z,95593.45
2019-05-07T02:17:45.128Z,95589.97
2019-05-07T02:20:15.036Z,95594.09
2019-05-07T02:22:44.987Z,95589.15
2019-05-07T02:25:14.893Z,95590.60
2019-05-07T02:27:44.846Z,95583.23
2019-05-07T02:30:15.151Z,95583.05
2019-05-07T02:32:45.353Z,95574.58
2019-05-07T02:35:15.265Z,95578.17
2019-05-07T02:37:52.316Z,95576.05
2019-05-07T02:40:26.501Z,95575.77
2019-05-07T02:42:56.459Z,95567.30
2019-05-07T02:45:44.362Z,95570.78
2019-05-07T02:48:15.783Z,95569.05
2019-05-07T02:50:53.911Z,95564.23
2019-05-07T02:53:28.461Z,95550.71
2019-05-07T02:55:59.851Z,95555.01
2019-05-07T02:58:32.849Z,95555.01
2019-05-07T03:01:04.742Z,95557.69
2019-05-07T03:03:33.715Z,95560.27
2019-05-07T03:06:05.101Z,95551.80
2019-05-07T03:08:35.048Z,95559.72
2019-05-07T03:11:04.955Z,95555.95
2019-05-07T03:13:34.908Z,95552.53
2019-05-07T03:16:04.823Z,95554.73
2019-05-07T03:18:34.781Z,95554.00
2019-05-07T03:21:15.481Z,95549.41
2019-05-07T03:24:03.433Z,95551.14
2019-05-07T03:26:35.985Z,95550.20
2019-05-07T03:29:07.573Z,95551.77
2019-05-07T03:31:39.141Z,95546.06
2019-05-07T03:34:16.059Z,95549.48
2019-05-07T03:36:48.617Z,95548.98
2019-05-07T03:39:18.272Z,95548.64
2019-05-07T03:41:48.244Z,95552.58
2019-05-07T03:44:23.982Z,95546.80
2019-05-07T03:47:01.794Z,95552.05
2019-05-07T03:49:33.797Z,95547.34
2019-05-07T03:52:04.206Z,95550.00
2019-05-07T03:54:34.412Z,95546.80
2019-05-07T03:57:11.054Z,95549.09
2019-05-07T03:59:37.497Z,95548.42
2019-05-07T04:02:08.564Z,95548.25
2019-05-07T04:04:38.513Z,95548.43
2019-05-07T04:07:08.492Z,95545.78
2019-05-07T04:09:38.515Z,95545.85
2019-05-07T04:12:08.500Z,95541.98
2019-05-07T04:14:38.475Z,95538.78
2019-05-07T04:17:22.335Z,95535.36
2019-05-07T04:19:40.029Z,95545.13
2019-05-07T04:22:13.015Z,95547.63
2019-05-07T04:24:43.294Z,95545.16
2019-05-07T04:27:14.844Z,95537.31
2019-05-07T04:29:44.878Z,95550.59
2019-05-07T04:32:15.858Z,95550.23
2019-05-07T04:34:47.523Z,95553.83
2019-05-07T04:37:17.469Z,95553.64
2019-05-07T04:39:53.997Z,95555.48
2019-05-07T04:42:24.630Z,95554.30
2019-05-07T04:44:54.770Z,95553.38
2019-05-07T04:47:41.331Z,95551.63
2019-05-07T04:49:56.431Z,95549.68
2019-05-07T04:52:36.974Z,95540.63
2019-05-07T04:55:07.286Z,95544.78
2019-05-07T04:57:38.176Z,95539.68
2019-05-07T05:00:09.822Z,95544.63
2019-05-07T05:02:43.523Z,95541.64
2019-05-07T05:05:13.645Z,95539.11
2019-05-07T05:07:44.724Z,95542.56
2019-05-07T05:10:14.668Z,95541.03
2019-05-07T05:12:44.588Z,95545.57
2019-05-07T05:15:14.571Z,95541.41
2019-05-07T05:17:50.489Z,95541.41
2019-05-07T05:20:18.129Z,95544.28
2019-05-07T05:23:05.877Z,95549.34
2019-05-07T05:25:37.137Z,95552.20
2019-05-07T05:28:08.136Z,95549.39
2019-05-07T05:30:42.658Z,95549.53
2019-05-07T05:33:12.837Z,95549.87
2019-05-07T05:35:43.553Z,95552.68
2019-05-07T05:38:13.229Z,95551.25
2019-05-07T05:40:43.022Z,95557.09
2019-05-07T05:43:16.976Z,95557.06
2019-05-07T05:45:48.233Z,95563.73
2019-05-07T05:48:17.912Z,95556.70
2019-05-07T05:51:05.484Z,95558.30
2019-05-07T05:53:43.331Z,95557.28
2019-05-07T05:56:22.837Z,95562.84
2019-05-07T05:59:03.327Z,95559.09
2019-05-07T06:01:43.553Z,95569.14
2019-05-07T06:04:32.790Z,95567.54
2019-05-07T06:07:11.190Z,95564.33
2019-05-07T06:09:36.722Z,95565.54
2019-05-07T06:12:07.985Z,95569.10
2019-05-07T06:14:45.108Z,95560.31
2019-05-07T06:17:32.805Z,95563.97
2019-05-07T06:20:19.170Z,95561.91
2019-05-07T06:23:06.496Z,95556.06
2019-05-07T06:25:36.159Z,95564.08
2019-05-07T06:28:05.784Z,95559.57
2019-05-07T06:30:35.405Z,95561.44
2019-05-07T06:33:05.126Z,95561.48
2019-05-07T06:35:34.809Z,95561.08
2019-05-07T06:38:06.180Z,95560.80
2019-05-07T06:40:52.495Z,95566.45
2019-05-07T06:43:26.795Z,95568.56
2019-05-07T06:45:57.764Z,95568.84
2019-05-07T06:48:40.988Z,95565.81
2019-05-07T06:50:59.486Z,95567.02
2019-05-07T06:53:33.373Z,95561.19
2019-05-07T06:56:05.541Z,95560.58
2019-05-07T06:58:36.874Z,95559.19
2019-05-07T07:01:08.169Z,95561.52
2019-05-07T07:03:55.728Z,95559.20
2019-05-07T07:06:27.141Z,95556.20
2019-05-07T07:09:01.849Z,95553.42
2019-05-07T07:11:35.271Z,95553.27
2019-05-07T07:14:06.244Z,95555.44
2019-05-07T07:16:35.977Z,95557.20
2019-05-07T07:19:06.678Z,95551.84
2019-05-07T07:21:36.363Z,95548.77
2019-05-07T07:24:06.128Z,95547.52
2019-05-07T07:26:36.634Z,95537.91
2019-05-07T07:29:07.738Z,95540.34
2019-05-07T07:34:33.325Z,95534.02
2019-05-07T07:37:15.462Z,95537.92
2019-05-07T07:39:43.022Z,95542.74
2019-05-07T07:42:13.242Z,95537.92
2019-05-07T07:44:42.879Z,95541.57
2019-05-07T07:47:12.988Z,95541.45
2019-05-07T07:49:43.024Z,95539.56
2019-05-07T07:52:12.655Z,95534.34
2019-05-07T07:54:42.976Z,95529.25
2019-05-07T07:57:14.461Z,95527.95
2019-05-07T07:59:48.664Z,95525.55
2019-05-07T08:02:28.762Z,95517.69
2019-05-07T08:04:58.421Z,95517.64
2019-05-07T08:07:28.058Z,95520.94
2019-05-07T08:09:57.723Z,95523.69
2019-05-07T08:12:27.354Z,95517.52
2019-05-07T08:15:13.499Z,95518.69
2019-05-07T08:17:28.336Z,95519.08
2019-05-07T08:19:57.957Z,95510.41
2019-05-07T08:22:29.002Z,95511.28
2019-05-07T08:24:58.632Z,95507.52
2019-05-07T08:27:28.258Z,95505.73
2019-05-07T08:29:57.941Z,95503.77
2019-05-07T08:32:34.786Z,95500.36
2019-05-07T08:35:08.718Z,95494.62
2019-05-07T08:37:39.444Z,95489.97
2019-05-07T08:40:09.071Z,95493.05
2019-05-07T08:42:38.818Z,95488.09
2019-05-07T08:45:26.241Z,95485.77
2019-05-07T08:47:57.603Z,95486.63
2019-05-07T08:50:27.305Z,95486.78
2019-05-07T08:52:56.978Z,95484.80
2019-05-07T08:55:26.608Z,95479.30
2019-05-07T08:57:56.236Z,95480.22
2019-05-07T09:00:25.899Z,95481.69
2019-05-07T09:02:55.530Z,95481.91
2019-05-07T09:05:25.160Z,95480.38
2019-05-07T09:07:54.819Z,95475.41
2019-05-07T09:10:24.446Z,95474.25
2019-05-07T09:12:54.097Z,95474.58
2019-05-07T09:15:23.766Z,95475.64
2019-05-07T09:17:53.399Z,95474.48
2019-05-07T09:20:23.056Z,95470.81
2019-05-07T09:22:53.074Z,95471.45
2019-05-07T09:25:22.864Z,95468.95
2019-05-07T09:27:54.235Z,95466.20
2019-05-07T09:30:32.723Z,95463.99
2019-05-07T09:33:07.112Z,95455.59
2019-05-07T09:35:42.377Z,95451.27
2019-05-07T09:38:12.294Z,95447.77
2019-05-07T09:40:42.222Z,95445.53
2019-05-07T09:43:12.137Z,95440.97
2019-05-07T09:45:42.163Z,95442.17
2019-05-07T09:48:12.204Z,95433.17
2019-05-07T09:50:42.881Z,95431.73
2019-05-07T09:53:12.959Z,95434.87
2019-05-07T09:55:42.812Z,95424.38
2019-05-07T09:58:12.800Z,95421.71
2019-05-07T10:00:42.677Z,95424.58
2019-05-07T10:03:12.834Z,95421.70
2019-05-07T10:05:43.121Z,95420.83
2019-05-07T10:08:13.142Z,95417.45
2019-05-07T10:10:44.761Z,95418.67
2019-05-07T10:13:24.774Z,95418.59
2019-05-07T10:15:54.441Z,95424.38
2019-05-07T10:18:24.073Z,95420.45
2019-05-07T10:20:53.802Z,95421.44
2019-05-07T10:23:23.484Z,95428.50
2019-05-07T10:25:53.357Z,95415.84
2019-05-07T10:28:23.426Z,95413.37
2019-05-07T10:30:53.233Z,95412.37
2019-05-07T10:33:23.357Z,95409.45
2019-05-07T10:35:53.141Z,95408.27
2019-05-07T10:38:22.879Z,95398.71
2019-05-07T10:40:54.768Z,95397.94
2019-05-07T10:43:25.555Z,95391.55
2019-05-07T10:45:57.209Z,95396.78
2019-05-07T10:48:28.955Z,95389.52
2019-05-07T10:51:06.322Z,95390.37
2019-05-07T10:53:36.458Z,95391.83
2019-05-07T10:56:06.630Z,95385.39
2019-05-07T10:58:36.746Z,95379.33
2019-05-07T11:01:07.607Z,95383.26
2019-05-07T11:03:42.136Z,95374.45
2019-05-07T11:06:22.084Z,95374.84
2019-05-07T11:09:06.172Z,95365.66
2019-05-07T11:11:37.226Z,95363.58
2019-05-07T11:14:07.413Z,95360.84
2019-05-07T11:16:38.838Z,95352.28
2019-05-07T11:19:09.078Z,95350.92
2019-05-07T11:21:38.806Z,95341.98
2019-05-07T11:24:08.464Z,95348.52
2019-05-07T11:26:38.087Z,95348.36
2019-05-07T11:29:07.753Z,95335.95
2019-05-07T11:31:37.444Z,95330.34
2019-05-07T11:34:07.080Z,95331.52
2019-05-07T11:36:36.812Z,95333.89
2019-05-07T11:39:07.178Z,95320.08
2019-05-07T11:41:45.657Z,95323.66
2019-05-07T11:44:17.061Z,95324.65
2019-05-07T11:46:52.601Z,95319.84
2019-05-07T11:49:24.091Z,95307.36
2019-05-07T11:51:56.192Z,95305.07
2019-05-07T11:54:26.224Z,95301.94
2019-05-07T11:56:55.893Z,95301.54
2019-05-07T11:59:25.757Z,95298.46
2019-05-07T12:01:57.026Z,95292.84
2019-05-07T12:04:28.032Z,95289.86
2019-05-07T12:06:57.839Z,95283.79
2019-05-07T12:09:27.464Z,95283.91
2019-05-07T12:11:57.589Z,95279.33
2019-05-07T12:14:31.567Z,95283.50
2019-05-07T12:16:59.600Z,95288.43
2019-05-07T12:19:33.096Z,95281.73
2019-05-07T12:22:04.253Z,95275.98
2019-05-07T12:24:34.214Z,95279.37
2019-05-07T12:27:11.917Z,95270.06
2019-05-07T12:29:43.735Z,95268.19
2019-05-07T12:32:18.176Z,95262.54
2019-05-07T12:34:52.782Z,95257.75
2019-05-07T12:37:22.508Z,95255.25
2019-05-07T12:39:52.743Z,95264.70
2019-05-07T12:42:23.133Z,95259.70
2019-05-07T12:44:52.800Z,95258.84
2019-05-07T12:47:22.643Z,95253.59
2019-05-07T12:49:52.366Z,95243.92
2019-05-07T12:52:27.456Z,95246.05
2019-05-07T12:55:14.963Z,95245.69
2019-05-07T12:58:02.734Z,95237.67
2019-05-07T13:00:53.839Z,95233.71
2019-05-07T13:03:39.571Z,95238.13
2019-05-07T13:06:25.665Z,95232.89
2019-05-07T13:08:56.517Z,95232.45
2019-05-07T13:11:27.734Z,95235.73
2019-05-07T13:13:57.831Z,95231.27
2019-05-07T13:16:27.690Z,95230.23
2019-05-07T13:18:58.332Z,95233.45
2019-05-07T13:21:28.054Z,95223.71
2019-05-07T13:23:57.688Z,95224.00
2019-05-07T13:26:27.974Z,95222.23
2019-05-07T13:28:57.637Z,95224.91
2019-05-07T13:31:27.884Z,95221.56
2019-05-07T13:34:02.757Z,95211.94
2019-05-07T13:36:32.732Z,95215.81
2019-05-07T13:39:23.531Z,95214.51
2019-05-07T13:41:54.919Z,95213.09
2019-05-07T13:44:31.959Z,95206.22
2019-05-07T13:47:21.831Z,95194.66
2019-05-07T13:49:53.843Z,95192.27
2019-05-07T13:52:24.284Z,95197.70
2019-05-07T13:54:54.585Z,95188.38
2019-05-07T13:57:25.932Z,95189.39
2019-05-07T13:59:57.069Z,95182.13
2019-05-07T14:02:28.587Z,95180.11
2019-05-07T14:04:58.301Z,95180.78
2019-05-07T14:07:29.539Z,95178.38
2019-05-07T14:09:59.174Z,95171.18
2019-05-07T14:12:28.888Z,95172.62
2019-05-07T14:14:58.560Z,95176.66
2019-05-07T14:17:28.181Z,95175.08
2019-05-07T14:19:57.835Z,95174.02
2019-05-07T14:22:27.513Z,95171.17
2019-05-07T14:24:57.169Z,95166.80
2019-05-07T14:27:26.825Z,95163.69
2019-05-07T14:29:56.531Z,95161.33
2019-05-07T14:32:28.790Z,95155.30
2019-05-07T14:35:15.844Z,95154.13
2019-05-07T14:37:48.211Z,95161.09
2019-05-07T14:40:17.908Z,95157.16
2019-05-07T14:42:55.268Z,95160.87
2019-05-07T14:45:24.955Z,95155.23
2019-05-07T14:47:54.589Z,95141.02
2019-05-07T14:50:24.253Z,95144.28
2019-05-07T14:52:55.223Z,95151.52
2019-05-07T14:55:25.050Z,95158.37
2019-05-07T14:57:54.792Z,95161.66
2019-05-07T15:00:24.461Z,95165.56
2019-05-07T15:02:54.117Z,95163.61
2019-05-07T15:05:23.740Z,95165.58
2019-05-07T15:08:06.639Z,95167.13
2019-05-07T15:10:24.755Z,95172.42
2019-05-07T15:12:55.351Z,95165.66
2019-05-07T15:15:25.988Z,95162.64
2019-05-07T15:17:57.288Z,95153.82
2019-05-07T15:20:27.025Z,95156.25
2019-05-07T15:22:58.435Z,95160.84
2019-05-07T15:25:28.173Z,95157.23
2019-05-07T15:27:58.187Z,95168.31
2019-05-07T15:30:29.549Z,95165.56
2019-05-07T15:32:59.200Z,95159.23
2019-05-07T15:35:28.868Z,95155.92
2019-05-07T15:37:58.678Z,95154.74
2019-05-07T15:40:28.942Z,95149.83
2019-05-07T15:42:58.806Z,95148.83
2019-05-07T15:45:28.475Z,95148.59
2019-05-07T15:47:59.051Z,95150.10
2019-05-07T15:50:28.795Z,95143.53
2019-05-07T15:53:01.805Z,95153.55
2019-05-07T15:55:31.737Z,95141.22
2019-05-07T15:58:02.786Z,95142.95
2019-05-07T16:00:34.600Z,95141.77
2019-05-07T16:03:05.943Z,95137.63
2019-05-07T16:05:35.570Z,95135.05
2019-05-07T16:08:06.868Z,95133.09
2019-05-07T16:10:36.506Z,95134.44
2019-05-07T16:13:07.057Z,95133.64
2019-05-07T16:15:36.757Z,95135.22
2019-05-07T16:18:12.989Z,95133.36
2019-05-07T16:20:42.850Z,95129.28
2019-05-07T16:23:17.252Z,95139.28
2019-05-07T16:25:44.085Z,95133.05
2019-05-07T16:28:13.758Z,95138.37
2019-05-07T16:30:43.399Z,95137.11
2019-05-07T16:33:13.148Z,95135.95
2019-05-07T16:35:42.783Z,95137.97
2019-05-07T16:38:15.616Z,95132.27
2019-05-07T16:40:45.021Z,95137.01
2019-05-07T16:43:14.695Z,95132.36
2019-05-07T16:45:45.488Z,95133.31
2019-05-07T16:48:15.222Z,95131.63
2019-05-07T16:50:44.888Z,95132.18
2019-05-07T16:53:26.664Z,95130.70
2019-05-07T16:55:45.901Z,95132.95
2019-05-07T16:58:26.200Z,95129.17
2019-05-07T17:01:03.405Z,95130.33
2019-05-07T17:03:34.742Z,95125.37
2019-05-07T17:06:05.221Z,95117.86
2019-05-07T17:08:36.855Z,95118.39
2019-05-07T17:11:07.762Z,95116.22
2019-05-07T17:13:37.575Z,95119.20
2019-05-07T17:16:07.828Z,95110.97
2019-05-07T17:18:37.557Z,95119.58
2019-05-07T17:21:07.184Z,95113.88
2019-05-07T17:23:44.064Z,95120.27
2019-05-07T17:26:08.197Z,95117.53
2019-05-07T17:28:37.934Z,95114.83
2019-05-07T17:31:07.674Z,95117.83
2019-05-07T17:33:37.374Z,95114.78
2019-05-07T17:36:07.179Z,95114.81
2019-05-07T17:38:36.883Z,95113.00
2019-05-07T17:41:13.059Z,95110.09
2019-05-07T17:43:38.214Z,95109.91
2019-05-07T17:46:07.925Z,95107.47
2019-05-07T17:48:37.595Z,95104.03
2019-05-07T17:51:08.872Z,95103.40
2019-05-07T17:53:38.612Z,95106.06
2019-05-07T17:56:08.247Z,95107.23
2019-05-07T17:58:37.990Z,95107.23
2019-05-07T18:01:07.687Z,95103.31
2019-05-07T18:03:38.986Z,95102.16
2019-05-07T18:06:08.693Z,95104.59
2019-05-07T18:08:38.445Z,95111.64
2019-05-07T18:11:20.194Z,95113.77
2019-05-07T18:13:39.582Z,95121.11
2019-05-07T18:16:16.843Z,95118.81
2019-05-07T18:18:46.813Z,95117.16
2019-05-07T18:21:16.596Z,95118.56
2019-05-07T18:23:46.551Z,95109.40
2019-05-07T18:26:27.200Z,95112.79
2019-05-07T18:28:48.049Z,95109.66
2019-05-07T18:31:19.733Z,95114.52
2019-05-07T18:33:52.342Z,95105.34
2019-05-07T18:36:22.824Z,95101.86
2019-05-07T18:38:52.946Z,95100.69
2019-05-07T18:41:22.960Z,95096.55
2019-05-07T18:43:54.716Z,95098.81
2019-05-07T18:46:25.247Z,95101.52
2019-05-07T18:48:55.259Z,95103.30
2019-05-07T18:51:25.266Z,95104.20
2019-05-07T18:53:55.252Z,95099.61
2019-05-07T18:56:25.268Z,95099.73
2019-05-07T18:58:55.181Z,95103.44
2019-05-07T19:01:26.837Z,95104.48
2019-05-07T19:03:57.810Z,95108.61
2019-05-07T19:06:27.830Z,95107.23
2019-05-07T19:08:57.874Z,95109.65
2019-05-07T19:11:27.962Z,95105.78
2019-05-07T19:13:57.937Z,95103.92
2019-05-07T19:16:27.947Z,95112.16
2019-05-07T19:18:57.925Z,95114.45
2019-05-07T19:21:27.935Z,95110.78
2019-05-07T19:23:57.986Z,95104.98
2019-05-07T19:26:29.535Z,95105.44
2019-05-07T19:28:59.585Z,95108.82
2019-05-07T19:31:29.765Z,95106.66
2019-05-07T19:34:00.110Z,95108.25
2019-05-07T19:36:32.124Z,95103.13
2019-05-07T19:39:02.045Z,95100.49
2019-05-07T19:41:33.719Z,95103.39
2019-05-07T19:44:03.773Z,95103.17
2019-05-07T19:46:34.968Z,95103.27
2019-05-07T19:49:07.161Z,95105.48
2019-05-07T19:51:36.738Z,95111.00
2019-05-07T19:54:07.012Z,95103.64
2019-05-07T19:56:38.486Z,95107.56
2019-05-07T19:59:08.457Z,95107.69
2019-05-07T20:01:42.455Z,95114.72
2019-05-07T20:04:13.313Z,95103.06
2019-05-07T20:06:43.599Z,95103.06
2019-05-07T20:09:15.928Z,95111.41
2019-05-07T20:11:47.705Z,95105.67
2019-05-07T20:14:17.718Z,95105.61
2019-05-07T20:16:47.983Z,95102.33
2019-05-07T20:19:18.527Z,95097.08
2019-05-07T20:21:48.615Z,95091.78
2019-05-07T20:24:18.676Z,95091.75
2019-05-07T20:26:48.751Z,95090.25
2019-05-07T20:29:18.834Z,95095.56
2019-05-07T20:31:49.923Z,95089.95
2019-05-07T20:34:22.000Z,95088.10
2019-05-07T20:36:51.882Z,95087.52
2019-05-07T20:39:23.265Z,95084.24
2019-05-07T20:41:53.729Z,95080.09
2019-05-07T20:44:23.705Z,95083.26
2019-05-07T20:46:53.767Z,95083.54
2019-05-07T20:49:23.989Z,95083.97
2019-05-07T20:51:54.005Z,95085.36
2019-05-07T20:54:28.579Z,95086.27
2019-05-07T20:57:13.227Z,95082.75
2019-05-07T20:59:42.223Z,95085.31
2019-05-07T21:02:12.013Z,95081.20
2019-05-07T21:04:42.533Z,95083.25
2019-05-07T21:07:12.694Z,95081.08
2019-05-07T21:09:42.754Z,95081.03
2019-05-07T21:12:13.025Z,95081.50
2019-05-07T21:14:43.330Z,95086.45
2019-05-07T21:17:13.348Z,95086.47
2019-05-07T21:19:43.333Z,95082.43
2019-05-07T21:22:13.350Z,95086.40
2019-05-07T21:24:46.619Z,95084.28
2019-05-07T21:27:15.055Z,95090.76
2019-05-07T21:29:45.037Z,95087.95
2019-05-07T21:32:15.055Z,95086.91
2019-05-07T21:34:45.070Z,95076.55
2019-05-07T21:37:15.084Z,95071.14
2019-05-07T21:39:45.141Z,95070.69
2019-05-07T21:42:15.150Z,95068.55
2019-05-07T21:44:46.098Z,95066.88
2019-05-07T21:47:16.116Z,95066.46
2019-05-07T21:49:46.020Z,95071.47
2019-05-07T21:52:16.039Z,95065.52
2019-05-07T21:54:47.729Z,95063.27
2019-05-07T21:57:28.124Z,95063.66
2019-05-07T22:00:15.889Z,95066.09
2019-05-07T22:02:48.185Z,95066.38
2019-05-07T22:05:18.336Z,95071.14
2019-05-07T22:07:48.426Z,95070.97
2019-05-07T22:10:18.573Z,95065.41
2019-05-07T22:12:48.582Z,95060.97
2019-05-07T22:15:18.560Z,95061.22
2019-05-07T22:17:48.511Z,95055.84
2019-05-07T22:20:18.481Z,95049.08
2019-05-07T22:22:48.505Z,95043.73
2019-05-07T22:25:18.850Z,95037.38
2019-05-07T22:27:50.441Z,95037.38
2019-05-07T22:30:23.210Z,95023.41
2019-05-07T22:32:55.489Z,95032.60
2019-05-07T22:35:30.421Z,95029.92
2019-05-07T22:38:18.267Z,95029.92
2019-05-07T22:40:49.828Z,95024.84
2019-05-07T22:43:22.459Z,95012.66
2019-05-07T22:45:52.029Z,95017.41
2019-05-07T22:48:22.922Z,95017.29
2019-05-07T22:50:53.696Z,95019.05
2019-05-07T22:53:23.905Z,95014.77
2019-05-07T22:55:54.221Z,95015.59
2019-05-07T22:58:26.178Z,95011.70
2019-05-07T23:01:02.482Z,95008.03
2019-05-07T23:03:32.884Z,95008.03
2019-05-07T23:06:06.069Z,95007.75
2019-05-07T23:08:38.437Z,95004.70
2019-05-07T23:11:08.399Z,95004.70
2019-05-07T23:13:38.813Z,95005.08
2019-05-07T23:16:09.025Z,95003.58
2019-05-07T23:18:39.341Z,95001.37
2019-05-07T23:21:09.472Z,95005.97
2019-05-07T23:23:42.031Z,95005.97
2019-05-07T23:26:12.182Z,94998.19
2019-05-07T23:28:43.438Z,95004.80
2019-05-07T23:31:13.686Z,95001.39
2019-05-07T23:33:43.584Z,94998.56
2019-05-07T23:36:15.136Z,94986.45
2019-05-07T23:38:45.447Z,94986.45
2019-05-07T23:41:17.397Z,94997.97
2019-05-07T23:43:49.322Z,94983.13
2019-05-07T23:46:19.572Z,94974.19
2019-05-07T23:48:51.612Z,94974.19
2019-05-07T23:51:21.713Z,94970.88
2019-05-07T23:53:51.972Z,94970.88
2019-05-07T23:56:22.160Z,94947.30
2019-05-07T23:58:52.604Z,94947.30
